sensor_id;sensor_type;location;lat;lon;timestamp;temperature;humidity
14210;DHT22;7188;56.070;12.698;2023-05-29T00:00:32;9.70;99.90
14210;DHT22;7188;56.070;12.698;2023-05-29T00:02:58;9.70;1.00
14210;DHT22;7188;56.070;12.698;2023-05-29T00:05:24;9.60;1.00
14210;DHT22;7188;56.070;12.698;2023-05-29T00:07:50;9.60;1.00
14210;DHT22;7188;56.070;12.698;2023-05-29T00:10:16;9.70;1.00
14210;DHT22;7188;56.070;12.698;2023-05-29T00:12:42;9.70;1.00
14210;DHT22;7188;56.070;12.698;2023-05-29T00:15:09;9.60;1.00
14210;DHT22;7188;56.070;12.698;2023-05-29T00:17:38;9.60;16.00
14210;DHT22;7188;56.070;12.698;2023-05-29T00:20:06;9.50;99.90
14210;DHT22;7188;56.070;12.698;2023-05-29T00:22:35;9.50;99.90
14210;DHT22;7188;56.070;12.698;2023-05-29T00:25:04;9.40;99.90
14210;DHT22;7188;56.070;12.698;2023-05-29T00:27:30;9.40;1.00
14210;DHT22;7188;56.070;12.698;2023-05-29T00:29:58;9.40;1.00
14210;DHT22;7188;56.070;12.698;2023-05-29T00:32:23;9.40;1.00
14210;DHT22;7188;56.070;12.698;2023-05-29T00:34:54;9.30;99.90
14210;DHT22;7188;56.070;12.698;2023-05-29T00:37:20;9.30;99.90
14210;DHT22;7188;56.070;12.698;2023-05-29T00:39:47;9.30;99.90
14210;DHT22;7188;56.070;12.698;2023-05-29T00:42:13;9.40;99.90
14210;DHT22;7188;56.070;12.698;2023-05-29T00:44:39;9.40;99.90
14210;DHT22;7188;56.070;12.698;2023-05-29T00:47:05;9.40;1.00
14210;DHT22;7188;56.070;12.698;2023-05-29T00:49:31;9.40;1.00
14210;DHT22;7188;56.070;12.698;2023-05-29T00:51:57;9.40;1.00
14210;DHT22;7188;56.070;12.698;2023-05-29T00:54:28;9.50;1.00
14210;DHT22;7188;56.070;12.698;2023-05-29T00:56:55;9.50;1.00
14210;DHT22;7188;56.070;12.698;2023-05-29T00:59:21;9.40;1.00
14210;DHT22;7188;56.070;12.698;2023-05-29T01:01:51;9.40;1.00
14210;DHT22;7188;56.070;12.698;2023-05-29T01:04:17;9.40;66.50
14210;DHT22;7188;56.070;12.698;2023-05-29T01:06:43;9.30;99.90
14210;DHT22;7188;56.070;12.698;2023-05-29T01:09:10;9.30;99.90
14210;DHT22;7188;56.070;12.698;2023-05-29T01:14:39;9.30;1.00
14210;DHT22;7188;56.070;12.698;2023-05-29T01:25:34;9.20;99.90
14210;DHT22;7188;56.070;12.698;2023-05-29T01:28:07;9.20;99.90
14210;DHT22;7188;56.070;12.698;2023-05-29T01:30:36;9.20;1.00
14210;DHT22;7188;56.070;12.698;2023-05-29T01:33:02;9.30;1.00
14210;DHT22;7188;56.070;12.698;2023-05-29T01:35:29;9.20;1.00
14210;DHT22;7188;56.070;12.698;2023-05-29T01:37:55;9.20;1.00
14210;DHT22;7188;56.070;12.698;2023-05-29T01:40:21;9.20;1.00
14210;DHT22;7188;56.070;12.698;2023-05-29T01:42:47;9.20;1.00
14210;DHT22;7188;56.070;12.698;2023-05-29T01:45:13;9.10;1.00
14210;DHT22;7188;56.070;12.698;2023-05-29T01:47:39;9.10;99.90
14210;DHT22;7188;56.070;12.698;2023-05-29T01:50:06;9.20;1.00
14210;DHT22;7188;56.070;12.698;2023-05-29T01:52:32;9.10;1.00
14210;DHT22;7188;56.070;12.698;2023-05-29T01:54:58;9.10;1.00
14210;DHT22;7188;56.070;12.698;2023-05-29T01:57:24;9.10;1.00
14210;DHT22;7188;56.070;12.698;2023-05-29T01:59:51;9.00;1.00
14210;DHT22;7188;56.070;12.698;2023-05-29T02:02:18;9.00;99.90
14210;DHT22;7188;56.070;12.698;2023-05-29T02:04:43;9.00;1.00
14210;DHT22;7188;56.070;12.698;2023-05-29T02:07:09;9.00;1.00
14210;DHT22;7188;56.070;12.698;2023-05-29T02:09:40;9.00;52.50
14210;DHT22;7188;56.070;12.698;2023-05-29T02:12:06;8.90;99.90
14210;DHT22;7188;56.070;12.698;2023-05-29T02:14:33;8.90;99.90
14210;DHT22;7188;56.070;12.698;2023-05-29T02:16:58;8.80;1.00
14210;DHT22;7188;56.070;12.698;2023-05-29T02:19:24;8.80;1.00
14210;DHT22;7188;56.070;12.698;2023-05-29T02:21:50;8.80;1.00
14210;DHT22;7188;56.070;12.698;2023-05-29T02:24:17;8.80;1.00
14210;DHT22;7188;56.070;12.698;2023-05-29T02:26:43;8.80;1.00
14210;DHT22;7188;56.070;12.698;2023-05-29T02:29:09;8.80;1.00
14210;DHT22;7188;56.070;12.698;2023-05-29T02:31:36;8.80;1.00
14210;DHT22;7188;56.070;12.698;2023-05-29T02:34:01;8.80;44.70
14210;DHT22;7188;56.070;12.698;2023-05-29T02:36:27;8.80;88.20
14210;DHT22;7188;56.070;12.698;2023-05-29T02:38:53;8.70;97.00
14210;DHT22;7188;56.070;12.698;2023-05-29T02:41:18;8.70;99.90
14210;DHT22;7188;56.070;12.698;2023-05-29T02:43:44;8.70;99.90
14210;DHT22;7188;56.070;12.698;2023-05-29T02:46:10;8.60;99.90
14210;DHT22;7188;56.070;12.698;2023-05-29T02:48:35;8.70;99.90
14210;DHT22;7188;56.070;12.698;2023-05-29T02:51:01;8.70;99.90
14210;DHT22;7188;56.070;12.698;2023-05-29T02:53:27;8.80;99.90
14210;DHT22;7188;56.070;12.698;2023-05-29T02:55:52;8.80;99.90
14210;DHT22;7188;56.070;12.698;2023-05-29T02:58:21;8.80;99.90
14210;DHT22;7188;56.070;12.698;2023-05-29T03:00:47;8.80;99.90
14210;DHT22;7188;56.070;12.698;2023-05-29T03:03:13;8.90;99.90
14210;DHT22;7188;56.070;12.698;2023-05-29T03:05:38;9.00;99.90
14210;DHT22;7188;56.070;12.698;2023-05-29T03:08:04;9.30;99.90
14210;DHT22;7188;56.070;12.698;2023-05-29T03:10:30;9.40;99.90
14210;DHT22;7188;56.070;12.698;2023-05-29T03:12:56;9.70;99.90
14210;DHT22;7188;56.070;12.698;2023-05-29T03:15:40;9.80;99.90
14210;DHT22;7188;56.070;12.698;2023-05-29T03:18:05;10.00;99.90
14210;DHT22;7188;56.070;12.698;2023-05-29T03:20:31;10.20;99.90
14210;DHT22;7188;56.070;12.698;2023-05-29T03:22:56;10.40;1.00
14210;DHT22;7188;56.070;12.698;2023-05-29T03:25:22;10.60;1.00
14210;DHT22;7188;56.070;12.698;2023-05-29T03:27:48;10.80;99.90
14210;DHT22;7188;56.070;12.698;2023-05-29T03:30:14;11.10;1.00
14210;DHT22;7188;56.070;12.698;2023-05-29T03:32:40;11.30;99.90
14210;DHT22;7188;56.070;12.698;2023-05-29T03:35:06;11.50;99.90
14210;DHT22;7188;56.070;12.698;2023-05-29T03:37:33;11.70;1.00
14210;DHT22;7188;56.070;12.698;2023-05-29T03:39:58;11.90;99.90
14210;DHT22;7188;56.070;12.698;2023-05-29T03:42:24;12.00;1.00
14210;DHT22;7188;56.070;12.698;2023-05-29T03:44:50;12.10;1.00
14210;DHT22;7188;56.070;12.698;2023-05-29T03:47:15;12.10;99.90
14210;DHT22;7188;56.070;12.698;2023-05-29T03:49:41;12.20;99.90
14210;DHT22;7188;56.070;12.698;2023-05-29T03:52:06;12.30;99.90
14210;DHT22;7188;56.070;12.698;2023-05-29T03:54:33;12.40;1.00
14210;DHT22;7188;56.070;12.698;2023-05-29T03:56:58;12.40;1.00
14210;DHT22;7188;56.070;12.698;2023-05-29T03:59:24;12.40;1.00
14210;DHT22;7188;56.070;12.698;2023-05-29T04:01:50;12.50;1.00
14210;DHT22;7188;56.070;12.698;2023-05-29T04:04:15;12.40;1.00
14210;DHT22;7188;56.070;12.698;2023-05-29T04:06:41;12.50;1.00
14210;DHT22;7188;56.070;12.698;2023-05-29T04:09:07;12.60;1.00
14210;DHT22;7188;56.070;12.698;2023-05-29T04:11:34;12.70;1.00
14210;DHT22;7188;56.070;12.698;2023-05-29T04:14:00;12.80;1.00
14210;DHT22;7188;56.070;12.698;2023-05-29T04:16:27;12.90;99.90
14210;DHT22;7188;56.070;12.698;2023-05-29T04:18:53;13.00;99.90
14210;DHT22;7188;56.070;12.698;2023-05-29T04:21:19;13.00;99.90
14210;DHT22;7188;56.070;12.698;2023-05-29T04:23:45;13.10;85.20
14210;DHT22;7188;56.070;12.698;2023-05-29T04:26:10;13.10;1.00
14210;DHT22;7188;56.070;12.698;2023-05-29T04:28:36;13.20;1.00
14210;DHT22;7188;56.070;12.698;2023-05-29T04:31:03;13.30;99.90
14210;DHT22;7188;56.070;12.698;2023-05-29T04:33:28;13.40;99.90
14210;DHT22;7188;56.070;12.698;2023-05-29T04:35:55;13.40;1.00
14210;DHT22;7188;56.070;12.698;2023-05-29T04:38:20;13.60;1.00
14210;DHT22;7188;56.070;12.698;2023-05-29T04:40:51;13.70;1.00
14210;DHT22;7188;56.070;12.698;2023-05-29T04:43:18;13.70;1.00
14210;DHT22;7188;56.070;12.698;2023-05-29T04:45:44;13.70;99.90
14210;DHT22;7188;56.070;12.698;2023-05-29T04:48:09;13.70;1.00
14210;DHT22;7188;56.070;12.698;2023-05-29T04:50:35;13.90;99.90
14210;DHT22;7188;56.070;12.698;2023-05-29T04:53:02;14.00;99.90
14210;DHT22;7188;56.070;12.698;2023-05-29T04:55:27;14.10;99.90
14210;DHT22;7188;56.070;12.698;2023-05-29T04:57:53;14.10;99.90
14210;DHT22;7188;56.070;12.698;2023-05-29T05:00:19;13.90;99.90
14210;DHT22;7188;56.070;12.698;2023-05-29T05:02:45;14.00;99.90
14210;DHT22;7188;56.070;12.698;2023-05-29T05:05:12;14.10;99.90
14210;DHT22;7188;56.070;12.698;2023-05-29T05:07:38;14.30;99.90
14210;DHT22;7188;56.070;12.698;2023-05-29T05:10:04;14.30;13.20
14210;DHT22;7188;56.070;12.698;2023-05-29T05:12:29;14.40;11.40
14210;DHT22;7188;56.070;12.698;2023-05-29T05:14:55;14.50;1.00
14210;DHT22;7188;56.070;12.698;2023-05-29T05:17:21;14.50;1.00
14210;DHT22;7188;56.070;12.698;2023-05-29T05:19:47;14.50;1.00
14210;DHT22;7188;56.070;12.698;2023-05-29T05:22:15;14.30;1.00
14210;DHT22;7188;56.070;12.698;2023-05-29T05:24:41;14.20;1.00
14210;DHT22;7188;56.070;12.698;2023-05-29T05:27:07;14.20;1.00
14210;DHT22;7188;56.070;12.698;2023-05-29T05:29:33;14.20;1.00
14210;DHT22;7188;56.070;12.698;2023-05-29T05:31:58;14.20;8.10
14210;DHT22;7188;56.070;12.698;2023-05-29T05:34:24;14.40;14.20
14210;DHT22;7188;56.070;12.698;2023-05-29T05:36:50;14.60;1.00
14210;DHT22;7188;56.070;12.698;2023-05-29T05:39:16;14.60;1.00
14210;DHT22;7188;56.070;12.698;2023-05-29T05:41:41;14.70;1.00
14210;DHT22;7188;56.070;12.698;2023-05-29T05:44:07;14.90;1.00
14210;DHT22;7188;56.070;12.698;2023-05-29T05:46:32;15.10;1.00
14210;DHT22;7188;56.070;12.698;2023-05-29T05:48:58;15.40;1.00
14210;DHT22;7188;56.070;12.698;2023-05-29T05:51:26;15.30;1.00
14210;DHT22;7188;56.070;12.698;2023-05-29T05:53:53;15.40;1.00
14210;DHT22;7188;56.070;12.698;2023-05-29T05:56:18;15.60;1.00
14210;DHT22;7188;56.070;12.698;2023-05-29T05:58:44;15.70;1.00
14210;DHT22;7188;56.070;12.698;2023-05-29T06:01:10;15.60;99.90
14210;DHT22;7188;56.070;12.698;2023-05-29T06:03:36;15.30;1.00
14210;DHT22;7188;56.070;12.698;2023-05-29T06:06:03;15.10;1.00
14210;DHT22;7188;56.070;12.698;2023-05-29T06:08:29;15.00;1.00
14210;DHT22;7188;56.070;12.698;2023-05-29T06:10:56;14.90;1.00
14210;DHT22;7188;56.070;12.698;2023-05-29T06:13:21;14.90;1.00
14210;DHT22;7188;56.070;12.698;2023-05-29T06:15:48;15.10;1.00
14210;DHT22;7188;56.070;12.698;2023-05-29T06:18:14;15.30;1.00
14210;DHT22;7188;56.070;12.698;2023-05-29T06:20:40;15.30;1.00
14210;DHT22;7188;56.070;12.698;2023-05-29T06:23:06;15.40;1.00
14210;DHT22;7188;56.070;12.698;2023-05-29T06:25:32;15.70;1.00
14210;DHT22;7188;56.070;12.698;2023-05-29T06:28:01;15.90;1.00
14210;DHT22;7188;56.070;12.698;2023-05-29T06:30:27;15.70;1.00
14210;DHT22;7188;56.070;12.698;2023-05-29T06:32:53;15.20;1.00
14210;DHT22;7188;56.070;12.698;2023-05-29T06:35:18;15.00;1.00
14210;DHT22;7188;56.070;12.698;2023-05-29T06:37:45;14.70;1.00
14210;DHT22;7188;56.070;12.698;2023-05-29T06:40:14;14.50;99.90
14210;DHT22;7188;56.070;12.698;2023-05-29T06:42:41;14.40;99.90
14210;DHT22;7188;56.070;12.698;2023-05-29T06:45:13;14.60;99.90
14210;DHT22;7188;56.070;12.698;2023-05-29T06:47:42;14.70;99.90
14210;DHT22;7188;56.070;12.698;2023-05-29T06:50:08;14.90;99.90
14210;DHT22;7188;56.070;12.698;2023-05-29T06:52:34;15.10;99.90
14210;DHT22;7188;56.070;12.698;2023-05-29T06:55:00;15.20;99.90
14210;DHT22;7188;56.070;12.698;2023-05-29T06:57:26;15.40;99.90
14210;DHT22;7188;56.070;12.698;2023-05-29T06:59:52;15.40;99.90
14210;DHT22;7188;56.070;12.698;2023-05-29T07:02:18;15.40;99.90
14210;DHT22;7188;56.070;12.698;2023-05-29T07:04:43;15.50;7.00
14210;DHT22;7188;56.070;12.698;2023-05-29T07:07:09;15.60;1.00
14210;DHT22;7188;56.070;12.698;2023-05-29T07:09:35;15.70;1.00
14210;DHT22;7188;56.070;12.698;2023-05-29T07:12:00;15.60;1.00
14210;DHT22;7188;56.070;12.698;2023-05-29T07:14:26;15.60;1.00
14210;DHT22;7188;56.070;12.698;2023-05-29T07:16:51;15.60;1.00
14210;DHT22;7188;56.070;12.698;2023-05-29T07:19:17;15.60;1.00
14210;DHT22;7188;56.070;12.698;2023-05-29T07:21:43;15.70;1.00
14210;DHT22;7188;56.070;12.698;2023-05-29T07:24:08;15.70;1.00
14210;DHT22;7188;56.070;12.698;2023-05-29T07:26:34;15.80;99.90
14210;DHT22;7188;56.070;12.698;2023-05-29T07:29:00;15.90;99.90
14210;DHT22;7188;56.070;12.698;2023-05-29T07:31:25;15.80;99.90
14210;DHT22;7188;56.070;12.698;2023-05-29T07:33:51;15.70;99.90
14210;DHT22;7188;56.070;12.698;2023-05-29T07:36:17;15.90;99.90
14210;DHT22;7188;56.070;12.698;2023-05-29T07:38:43;16.00;99.90
14210;DHT22;7188;56.070;12.698;2023-05-29T07:41:09;16.00;99.90
14210;DHT22;7188;56.070;12.698;2023-05-29T07:43:35;16.00;99.90
14210;DHT22;7188;56.070;12.698;2023-05-29T07:46:01;15.90;99.90
14210;DHT22;7188;56.070;12.698;2023-05-29T07:48:27;15.70;95.90
14210;DHT22;7188;56.070;12.698;2023-05-29T07:50:53;15.70;99.90
14210;DHT22;7188;56.070;12.698;2023-05-29T07:53:18;15.80;99.90
14210;DHT22;7188;56.070;12.698;2023-05-29T07:55:44;15.80;99.90
14210;DHT22;7188;56.070;12.698;2023-05-29T07:58:10;15.80;35.20
14210;DHT22;7188;56.070;12.698;2023-05-29T08:00:38;15.80;26.50
14210;DHT22;7188;56.070;12.698;2023-05-29T08:03:04;15.90;36.20
14210;DHT22;7188;56.070;12.698;2023-05-29T08:05:29;15.90;1.00
14210;DHT22;7188;56.070;12.698;2023-05-29T08:07:57;15.70;1.00
14210;DHT22;7188;56.070;12.698;2023-05-29T08:10:24;15.70;1.00
14210;DHT22;7188;56.070;12.698;2023-05-29T08:12:49;15.70;1.00
14210;DHT22;7188;56.070;12.698;2023-05-29T08:15:18;15.70;1.00
14210;DHT22;7188;56.070;12.698;2023-05-29T08:17:43;15.70;1.00
14210;DHT22;7188;56.070;12.698;2023-05-29T08:20:09;15.70;1.00
14210;DHT22;7188;56.070;12.698;2023-05-29T08:22:35;15.60;1.00
14210;DHT22;7188;56.070;12.698;2023-05-29T08:25:01;15.60;1.00
14210;DHT22;7188;56.070;12.698;2023-05-29T08:27:27;15.80;1.00
14210;DHT22;7188;56.070;12.698;2023-05-29T08:29:53;16.00;1.00
14210;DHT22;7188;56.070;12.698;2023-05-29T08:32:20;16.10;1.00
14210;DHT22;7188;56.070;12.698;2023-05-29T08:34:46;16.00;1.00
14210;DHT22;7188;56.070;12.698;2023-05-29T08:37:12;15.90;1.00
14210;DHT22;7188;56.070;12.698;2023-05-29T08:39:38;15.90;1.00
14210;DHT22;7188;56.070;12.698;2023-05-29T08:42:07;16.00;1.00
14210;DHT22;7188;56.070;12.698;2023-05-29T08:44:33;16.10;1.00
14210;DHT22;7188;56.070;12.698;2023-05-29T08:47:03;16.00;1.00
14210;DHT22;7188;56.070;12.698;2023-05-29T08:49:42;15.80;1.00
14210;DHT22;7188;56.070;12.698;2023-05-29T08:52:17;15.90;1.00
14210;DHT22;7188;56.070;12.698;2023-05-29T08:54:44;15.90;1.00
14210;DHT22;7188;56.070;12.698;2023-05-29T08:57:13;16.00;1.00
14210;DHT22;7188;56.070;12.698;2023-05-29T08:59:43;16.00;1.00
14210;DHT22;7188;56.070;12.698;2023-05-29T09:02:10;16.10;1.00
14210;DHT22;7188;56.070;12.698;2023-05-29T09:04:37;16.10;1.00
14210;DHT22;7188;56.070;12.698;2023-05-29T09:07:03;16.00;1.00
14210;DHT22;7188;56.070;12.698;2023-05-29T09:09:32;16.10;1.00
14210;DHT22;7188;56.070;12.698;2023-05-29T09:11:58;16.30;1.00
14210;DHT22;7188;56.070;12.698;2023-05-29T09:14:39;16.40;1.00
14210;DHT22;7188;56.070;12.698;2023-05-29T09:17:07;16.40;1.00
14210;DHT22;7188;56.070;12.698;2023-05-29T09:19:35;16.20;1.00
14210;DHT22;7188;56.070;12.698;2023-05-29T09:22:05;16.00;1.00
14210;DHT22;7188;56.070;12.698;2023-05-29T09:24:34;15.90;1.00
14210;DHT22;7188;56.070;12.698;2023-05-29T09:27:01;15.90;1.00
14210;DHT22;7188;56.070;12.698;2023-05-29T09:29:31;16.10;1.00
14210;DHT22;7188;56.070;12.698;2023-05-29T09:31:58;16.10;1.00
14210;DHT22;7188;56.070;12.698;2023-05-29T09:34:24;16.00;1.00
14210;DHT22;7188;56.070;12.698;2023-05-29T09:37:02;15.90;1.00
14210;DHT22;7188;56.070;12.698;2023-05-29T09:39:54;15.90;1.00
14210;DHT22;7188;56.070;12.698;2023-05-29T09:42:20;15.80;1.00
14210;DHT22;7188;56.070;12.698;2023-05-29T09:44:49;15.90;1.00
14210;DHT22;7188;56.070;12.698;2023-05-29T09:47:19;16.00;1.00
14210;DHT22;7188;56.070;12.698;2023-05-29T09:49:46;16.10;1.00
14210;DHT22;7188;56.070;12.698;2023-05-29T09:52:13;16.20;1.00
14210;DHT22;7188;56.070;12.698;2023-05-29T09:54:42;16.10;1.00
14210;DHT22;7188;56.070;12.698;2023-05-29T09:57:13;16.00;1.00
14210;DHT22;7188;56.070;12.698;2023-05-29T09:59:43;15.90;1.00
14210;DHT22;7188;56.070;12.698;2023-05-29T10:02:11;15.80;1.00
14210;DHT22;7188;56.070;12.698;2023-05-29T10:04:39;15.90;1.00
14210;DHT22;7188;56.070;12.698;2023-05-29T10:07:36;16.00;1.00
14210;DHT22;7188;56.070;12.698;2023-05-29T10:10:09;15.90;1.00
14210;DHT22;7188;56.070;12.698;2023-05-29T10:12:38;15.80;1.00
14210;DHT22;7188;56.070;12.698;2023-05-29T10:15:09;15.90;1.00
14210;DHT22;7188;56.070;12.698;2023-05-29T10:17:37;16.00;1.00
14210;DHT22;7188;56.070;12.698;2023-05-29T10:20:05;16.00;1.00
14210;DHT22;7188;56.070;12.698;2023-05-29T10:22:33;16.10;1.00
14210;DHT22;7188;56.070;12.698;2023-05-29T10:25:02;16.00;1.00
14210;DHT22;7188;56.070;12.698;2023-05-29T10:27:28;16.10;1.00
14210;DHT22;7188;56.070;12.698;2023-05-29T10:30:06;16.10;1.00
14210;DHT22;7188;56.070;12.698;2023-05-29T10:33:02;16.30;1.00
14210;DHT22;7188;56.070;12.698;2023-05-29T10:38:32;16.30;1.00
14210;DHT22;7188;56.070;12.698;2023-05-29T10:43:54;16.20;1.00
14210;DHT22;7188;56.070;12.698;2023-05-29T10:46:21;16.10;1.00
14210;DHT22;7188;56.070;12.698;2023-05-29T10:48:53;15.90;1.00
14210;DHT22;7188;56.070;12.698;2023-05-29T10:51:27;15.90;1.00
14210;DHT22;7188;56.070;12.698;2023-05-29T10:53:53;16.20;1.00
14210;DHT22;7188;56.070;12.698;2023-05-29T10:56:24;16.30;1.00
14210;DHT22;7188;56.070;12.698;2023-05-29T10:58:55;16.20;1.00
14210;DHT22;7188;56.070;12.698;2023-05-29T11:01:23;16.10;1.00
14210;DHT22;7188;56.070;12.698;2023-05-29T11:03:50;16.10;1.00
14210;DHT22;7188;56.070;12.698;2023-05-29T11:06:20;15.90;1.00
14210;DHT22;7188;56.070;12.698;2023-05-29T11:08:56;16.00;1.00
14210;DHT22;7188;56.070;12.698;2023-05-29T11:11:30;15.80;1.00
14210;DHT22;7188;56.070;12.698;2023-05-29T11:14:00;15.80;1.00
14210;DHT22;7188;56.070;12.698;2023-05-29T11:18:59;15.80;1.00
14210;DHT22;7188;56.070;12.698;2023-05-29T11:24:26;16.30;1.00
14210;DHT22;7188;56.070;12.698;2023-05-29T11:26:53;16.30;1.00
14210;DHT22;7188;56.070;12.698;2023-05-29T11:29:29;16.10;1.00
14210;DHT22;7188;56.070;12.698;2023-05-29T11:32:14;15.70;1.00
14210;DHT22;7188;56.070;12.698;2023-05-29T11:34:43;15.50;1.00
14210;DHT22;7188;56.070;12.698;2023-05-29T11:37:11;15.70;1.00
14210;DHT22;7188;56.070;12.698;2023-05-29T11:39:38;15.60;1.00
14210;DHT22;7188;56.070;12.698;2023-05-29T11:42:04;15.40;1.00
14210;DHT22;7188;56.070;12.698;2023-05-29T11:44:31;15.60;1.00
14210;DHT22;7188;56.070;12.698;2023-05-29T11:47:04;15.80;1.00
14210;DHT22;7188;56.070;12.698;2023-05-29T11:49:34;15.70;1.00
14210;DHT22;7188;56.070;12.698;2023-05-29T11:52:14;15.60;1.00
14210;DHT22;7188;56.070;12.698;2023-05-29T11:54:40;15.50;1.00
14210;DHT22;7188;56.070;12.698;2023-05-29T11:57:20;15.50;1.00
14210;DHT22;7188;56.070;12.698;2023-05-29T11:59:46;15.50;1.00
14210;DHT22;7188;56.070;12.698;2023-05-29T12:02:12;15.50;1.00
14210;DHT22;7188;56.070;12.698;2023-05-29T12:04:38;15.60;1.00
14210;DHT22;7188;56.070;12.698;2023-05-29T12:07:17;15.70;1.00
14210;DHT22;7188;56.070;12.698;2023-05-29T12:09:43;15.60;1.00
14210;DHT22;7188;56.070;12.698;2023-05-29T12:12:09;15.70;1.00
14210;DHT22;7188;56.070;12.698;2023-05-29T12:14:34;15.60;1.00
14210;DHT22;7188;56.070;12.698;2023-05-29T12:17:00;15.30;1.00
14210;DHT22;7188;56.070;12.698;2023-05-29T12:19:26;15.30;1.00
14210;DHT22;7188;56.070;12.698;2023-05-29T12:21:51;15.70;1.00
14210;DHT22;7188;56.070;12.698;2023-05-29T12:24:20;15.90;1.00
14210;DHT22;7188;56.070;12.698;2023-05-29T12:26:46;15.80;1.00
14210;DHT22;7188;56.070;12.698;2023-05-29T12:29:16;15.60;1.00
14210;DHT22;7188;56.070;12.698;2023-05-29T12:31:42;15.60;1.00
14210;DHT22;7188;56.070;12.698;2023-05-29T12:34:10;15.50;1.00
14210;DHT22;7188;56.070;12.698;2023-05-29T12:36:36;15.60;1.00
14210;DHT22;7188;56.070;12.698;2023-05-29T12:39:07;15.90;1.00
14210;DHT22;7188;56.070;12.698;2023-05-29T12:41:37;16.10;1.00
14210;DHT22;7188;56.070;12.698;2023-05-29T12:44:05;15.90;1.00
14210;DHT22;7188;56.070;12.698;2023-05-29T12:46:39;15.60;1.00
14210;DHT22;7188;56.070;12.698;2023-05-29T12:49:18;15.40;1.00
14210;DHT22;7188;56.070;12.698;2023-05-29T12:51:49;15.30;1.00
14210;DHT22;7188;56.070;12.698;2023-05-29T12:54:15;15.30;1.00
14210;DHT22;7188;56.070;12.698;2023-05-29T12:56:41;15.50;1.00
14210;DHT22;7188;56.070;12.698;2023-05-29T12:59:07;15.40;1.00
14210;DHT22;7188;56.070;12.698;2023-05-29T13:01:34;15.20;1.00
14210;DHT22;7188;56.070;12.698;2023-05-29T13:03:59;15.20;1.00
14210;DHT22;7188;56.070;12.698;2023-05-29T13:06:25;15.50;1.00
14210;DHT22;7188;56.070;12.698;2023-05-29T13:08:51;15.60;1.00
14210;DHT22;7188;56.070;12.698;2023-05-29T13:11:17;15.80;1.00
14210;DHT22;7188;56.070;12.698;2023-05-29T13:13:43;16.00;1.00
14210;DHT22;7188;56.070;12.698;2023-05-29T13:16:09;16.00;1.00
14210;DHT22;7188;56.070;12.698;2023-05-29T13:18:35;16.20;1.00
14210;DHT22;7188;56.070;12.698;2023-05-29T13:21:01;16.20;1.00
14210;DHT22;7188;56.070;12.698;2023-05-29T13:23:27;16.10;1.00
14210;DHT22;7188;56.070;12.698;2023-05-29T13:25:53;16.10;1.00
14210;DHT22;7188;56.070;12.698;2023-05-29T13:28:18;16.10;1.00
14210;DHT22;7188;56.070;12.698;2023-05-29T13:30:44;16.20;1.00
14210;DHT22;7188;56.070;12.698;2023-05-29T13:33:10;16.40;1.00
14210;DHT22;7188;56.070;12.698;2023-05-29T13:35:36;16.40;1.00
14210;DHT22;7188;56.070;12.698;2023-05-29T13:38:01;16.50;1.00
14210;DHT22;7188;56.070;12.698;2023-05-29T13:40:27;16.40;1.00
14210;DHT22;7188;56.070;12.698;2023-05-29T13:42:54;16.20;1.00
14210;DHT22;7188;56.070;12.698;2023-05-29T13:45:20;16.10;1.00
14210;DHT22;7188;56.070;12.698;2023-05-29T13:47:46;15.90;1.00
14210;DHT22;7188;56.070;12.698;2023-05-29T13:50:11;15.60;1.00
14210;DHT22;7188;56.070;12.698;2023-05-29T13:52:38;15.50;1.00
14210;DHT22;7188;56.070;12.698;2023-05-29T13:55:04;15.60;1.00
14210;DHT22;7188;56.070;12.698;2023-05-29T13:57:36;15.80;1.00
14210;DHT22;7188;56.070;12.698;2023-05-29T14:00:04;15.90;1.00
14210;DHT22;7188;56.070;12.698;2023-05-29T14:02:29;15.90;1.00
14210;DHT22;7188;56.070;12.698;2023-05-29T14:04:55;15.70;1.00
14210;DHT22;7188;56.070;12.698;2023-05-29T14:07:21;15.80;1.00
14210;DHT22;7188;56.070;12.698;2023-05-29T14:09:47;15.80;1.00
14210;DHT22;7188;56.070;12.698;2023-05-29T14:12:12;15.80;1.00
14210;DHT22;7188;56.070;12.698;2023-05-29T14:14:38;15.80;1.00
14210;DHT22;7188;56.070;12.698;2023-05-29T14:17:04;15.70;1.00
14210;DHT22;7188;56.070;12.698;2023-05-29T14:19:30;15.30;1.00
14210;DHT22;7188;56.070;12.698;2023-05-29T14:21:57;15.40;1.00
14210;DHT22;7188;56.070;12.698;2023-05-29T14:24:25;15.50;1.00
14210;DHT22;7188;56.070;12.698;2023-05-29T14:26:51;15.80;1.00
14210;DHT22;7188;56.070;12.698;2023-05-29T14:29:17;15.70;1.00
14210;DHT22;7188;56.070;12.698;2023-05-29T14:31:43;15.60;1.00
14210;DHT22;7188;56.070;12.698;2023-05-29T14:34:09;15.50;1.00
14210;DHT22;7188;56.070;12.698;2023-05-29T14:36:36;15.50;1.00
14210;DHT22;7188;56.070;12.698;2023-05-29T14:39:03;15.60;1.00
14210;DHT22;7188;56.070;12.698;2023-05-29T14:41:29;15.50;1.00
14210;DHT22;7188;56.070;12.698;2023-05-29T14:43:54;15.50;1.00
14210;DHT22;7188;56.070;12.698;2023-05-29T14:46:26;15.50;1.00
14210;DHT22;7188;56.070;12.698;2023-05-29T14:48:54;15.50;1.00
14210;DHT22;7188;56.070;12.698;2023-05-29T14:51:20;15.60;1.00
14210;DHT22;7188;56.070;12.698;2023-05-29T14:53:46;15.30;1.00
14210;DHT22;7188;56.070;12.698;2023-05-29T14:56:12;15.00;1.00
14210;DHT22;7188;56.070;12.698;2023-05-29T14:58:37;15.10;1.00
14210;DHT22;7188;56.070;12.698;2023-05-29T15:01:07;15.10;1.00
14210;DHT22;7188;56.070;12.698;2023-05-29T15:03:33;15.30;1.00
14210;DHT22;7188;56.070;12.698;2023-05-29T15:06:35;15.30;1.00
14210;DHT22;7188;56.070;12.698;2023-05-29T15:09:00;15.40;1.00
14210;DHT22;7188;56.070;12.698;2023-05-29T15:11:29;15.30;1.00
14210;DHT22;7188;56.070;12.698;2023-05-29T15:13:56;15.10;1.00
14210;DHT22;7188;56.070;12.698;2023-05-29T15:16:22;15.30;1.00
14210;DHT22;7188;56.070;12.698;2023-05-29T15:18:47;15.20;1.00
14210;DHT22;7188;56.070;12.698;2023-05-29T15:21:13;15.30;1.00
14210;DHT22;7188;56.070;12.698;2023-05-29T15:23:39;15.40;1.00
14210;DHT22;7188;56.070;12.698;2023-05-29T15:26:05;15.40;1.00
14210;DHT22;7188;56.070;12.698;2023-05-29T15:28:31;15.40;1.00
14210;DHT22;7188;56.070;12.698;2023-05-29T15:30:58;15.30;1.00
14210;DHT22;7188;56.070;12.698;2023-05-29T15:33:25;15.30;1.00
14210;DHT22;7188;56.070;12.698;2023-05-29T15:35:50;15.50;1.00
14210;DHT22;7188;56.070;12.698;2023-05-29T15:38:16;15.60;1.00
14210;DHT22;7188;56.070;12.698;2023-05-29T15:40:42;15.60;1.00
14210;DHT22;7188;56.070;12.698;2023-05-29T15:43:09;15.40;1.00
14210;DHT22;7188;56.070;12.698;2023-05-29T15:45:36;15.30;1.00
14210;DHT22;7188;56.070;12.698;2023-05-29T15:48:02;15.20;1.00
14210;DHT22;7188;56.070;12.698;2023-05-29T15:50:28;15.40;1.00
14210;DHT22;7188;56.070;12.698;2023-05-29T15:52:53;15.40;1.00
14210;DHT22;7188;56.070;12.698;2023-05-29T15:55:19;15.50;1.00
14210;DHT22;7188;56.070;12.698;2023-05-29T15:57:45;15.50;1.00
14210;DHT22;7188;56.070;12.698;2023-05-29T16:00:14;15.70;1.00
14210;DHT22;7188;56.070;12.698;2023-05-29T16:02:40;15.70;1.00
14210;DHT22;7188;56.070;12.698;2023-05-29T16:05:06;15.70;1.00
14210;DHT22;7188;56.070;12.698;2023-05-29T16:07:33;15.50;1.00